Time;durP1;ratioP1;P1;durP2;ratioP2;P2;SDS_P1;SDS_P2;PMS_P1;PMS_P2;Temp;Humidity;BMP_temperature;BMP_pressure;BME280_temperature;BME280_humidity;BME280_pressure;Samples;Min_cycle;Max_cycle;Signal;HPM_P1;HPM_P2
2023/07/30 00:23:35;;;;;;;;;;;;;;;;;;5043445;27;20808;-66
2023/07/30 00:26:06;;;;;;;;;;;;;;;;;;4564760;28;3812161;-66
2023/07/30 00:28:32;;;;;;;;;;;;;;;;;;4925002;28;830164;-66
2023/07/30 00:30:58;;;;;;;;;;;;;;;;;;5018906;28;35098;-65
2023/07/30 00:33:24;;;;;;;;;;;;;;;;;;5025577;28;34138;-67
2023/07/30 00:35:50;;;;;;;;;;;;;;;;;;5029654;28;26062;-67
2023/07/30 00:38:18;;;;;;;;;;;;;;;;;;5029978;28;31068;-68
2023/07/30 00:40:44;;;;;;;;;;;;;;;;;;5040630;28;25137;-67
2023/07/30 00:43:10;;;;;;;;;;;;;;;;;;5044096;28;19980;-66
2023/07/30 00:45:36;;;;;;;;;;;;;;;;;;5087782;28;20007;-66
2023/07/30 00:48:03;;;;;;;;;;;;;;;;;;5081271;28;20452;-67
2023/07/30 00:50:29;;;;;;;;;;;;;;;;;;5090970;28;20406;-65
2023/07/30 00:52:55;;;;;;;;;;;;;;;;;;5090724;28;19937;-66
2023/07/30 00:55:21;;;;;;;;;;;;;;;;;;5090583;28;20448;-68
2023/07/30 00:57:47;;;;;;;;;;;;;;;;;;5091005;28;19942;-67
2023/07/30 01:00:14;;;;;;;;;;;;;;;;;;5090800;28;19935;-68
2023/07/30 01:02:40;;;;;;;;;;;;;;;;;;5090376;28;19959;-67
2023/07/30 01:05:06;;;;;;;;;;;;;;;;;;5090422;28;19993;-67
2023/07/30 01:07:32;;;;;;;;;;;;;;;;;;5090665;28;20297;-67
2023/07/30 01:09:58;;;;;;;;;;;;;;;;;;5090435;28;20411;-66
2023/07/30 01:12:25;;;;;;;;;;;;;;;;;;5090296;28;19930;-65
2023/07/30 01:14:51;;;;;;;;;;;;;;;;;;5090331;28;20048;-65
2023/07/30 01:17:17;;;;;;;;;;;;;;;;;;5090291;28;19932;-67
2023/07/30 01:19:43;;;;;;;;;;;;;;;;;;5090045;28;19932;-67
2023/07/30 01:22:09;;;;;;;;;;;;;;;;;;5090166;28;20381;-67
2023/07/30 01:24:36;;;;;;;;;;;;;;;;;;5090159;28;19935;-67
2023/07/30 01:27:02;;;;;;;;;;;;;;;;;;5089955;28;20021;-67
2023/07/30 01:29:28;;;;;;;;;;;;;;;;;;5090355;28;19934;-68
2023/07/30 01:31:54;;;;;;;;;;;;;;;;;;5090081;28;20012;-68
2023/07/30 01:34:20;;;;;;;;;;;;;;;;;;5079402;28;19965;-67
2023/07/30 01:36:47;;;;;;;;;;;;;;;;;;5076962;28;20383;-67
2023/07/30 01:39:13;;;;;;;;;;;;;;;;;;5076448;28;20019;-67
2023/07/30 01:41:39;;;;;;;;;;;;;;;;;;5076224;28;20422;-68
2023/07/30 01:44:05;;;;;;;;;;;;;;;;;;5076319;28;19988;-68
2023/07/30 01:46:31;;;;;;;;;;;;;;;;;;5076436;28;19935;-67
2023/07/30 01:48:58;;;;;;;;;;;;;;;;;;5076352;28;19956;-66
2023/07/30 01:51:24;;;;;;;;;;;;;;;;;;5076141;28;20010;-68
2023/07/30 01:53:50;;;;;;;;;;;;;;;;;;5062375;28;19984;-68
2023/07/30 01:56:16;;;;;;;;;;;;;;;;;;5057178;28;19941;-66
2023/07/30 01:58:42;;;;;;;;;;;;;;;;;;5055856;28;20315;-68
2023/07/30 02:01:09;;;;;;;;;;;;;;;;;;5066488;28;19944;-68
2023/07/30 02:03:35;;;;;;;;;;;;;;;;;;5076075;28;20477;-68
2023/07/30 02:06:01;;;;;;;;;;;;;;;;;;5075902;28;19933;-66
2023/07/30 02:08:27;;;;;;;;;;;;;;;;;;5067036;28;19934;-68
2023/07/30 02:10:53;;;;;;;;;;;;;;;;;;5075937;28;19939;-67
2023/07/30 02:13:20;;;;;;;;;;;;;;;;;;5075681;28;19938;-68
2023/07/30 02:15:46;;;;;;;;;;;;;;;;;;5075800;28;19987;-68
2023/07/30 02:18:12;;;;;;;;;;;;;;;;;;5075594;28;19940;-67
2023/07/30 02:20:38;;;;;;;;;;;;;;;;;;5075579;28;19936;-67
2023/07/30 02:23:04;;;;;;;;;;;;;;;;;;5075506;28;19971;-67
2023/07/30 02:25:31;;;;;;;;;;;;;;;;;;5075388;28;20306;-66
2023/07/30 02:27:57;;;;;;;;;;;;;;;;;;5075419;28;19933;-68
2023/07/30 02:30:23;;;;;;;;;;;;;;;;;;5075574;28;20410;-68
2023/07/30 02:32:49;;;;;;;;;;;;;;;;;;5075399;28;19945;-68
2023/07/30 02:35:15;;;;;;;;;;;;;;;;;;5075339;28;19938;-68
2023/07/30 02:37:41;;;;;;;;;;;;;;;;;;5075516;28;19928;-68
2023/07/30 02:40:08;;;;;;;;;;;;;;;;;;5075466;28;19954;-68
2023/07/30 02:42:34;;;;;;;;;;;;;;;;;;5075133;28;19955;-68
2023/07/30 02:45:00;;;;;;;;;;;;;;;;;;5074038;28;19936;-68
2023/07/30 02:47:26;;;;;;;;;;;;;;;;;;5075101;28;19934;-67
2023/07/30 02:49:52;;;;;;;;;;;;;;;;;;5075151;28;19988;-68
2023/07/30 02:52:19;;;;;;;;;;;;;;;;;;5075186;28;19944;-68
2023/07/30 02:54:45;;;;;;;;;;;;;;;;;;5075191;28;20389;-68
2023/07/30 02:57:12;;;;;;;;;;;;;;;;;;5075037;28;20034;-67
2023/07/30 02:59:39;;;;;;;;;;;;;;;;;;5075037;28;19952;-65
2023/07/30 03:02:05;;;;;;;;;;;;;;;;;;5057849;28;20394;-65
2023/07/30 03:04:31;;;;;;;;;;;;;;;;;;5057986;28;20023;-68
2023/07/30 03:06:57;;;;;;;;;;;;;;;;;;5062850;28;20053;-67
2023/07/30 03:09:24;;;;;;;;;;;;;;;;;;5068147;28;20420;-68
2023/07/30 03:11:50;;;;;;;;;;;;;;;;;;5068617;28;20004;-65
2023/07/30 03:14:20;;;;;;;;;;;;;;;;;;5065551;28;20330;-65
2023/07/30 03:16:46;;;;;;;;;;;;;;;;;;5069798;28;20324;-67
2023/07/30 03:19:12;;;;;;;;;;;;;;;;;;5064147;28;19955;-68
2023/07/30 03:21:38;;;;;;;;;;;;;;;;;;5066107;28;19998;-66
2023/07/30 03:24:05;;;;;;;;;;;;;;;;;;5068259;28;19946;-67
2023/07/30 03:26:31;;;;;;;;;;;;;;;;;;5068186;28;19927;-68
2023/07/30 03:28:57;;;;;;;;;;;;;;;;;;5074000;28;19973;-67
2023/07/30 03:31:23;;;;;;;;;;;;;;;;;;5073648;28;19941;-67
2023/07/30 03:33:49;;;;;;;;;;;;;;;;;;5065084;28;20022;-68
2023/07/30 03:36:16;;;;;;;;;;;;;;;;;;5068131;28;19993;-67
2023/07/30 03:38:42;;;;;;;;;;;;;;;;;;5074015;28;20388;-66
2023/07/30 03:41:08;;;;;;;;;;;;;;;;;;5074292;28;19931;-67
2023/07/30 03:43:34;;;;;;;;;;;;;;;;;;5074188;28;19929;-67
2023/07/30 03:46:00;;;;;;;;;;;;;;;;;;5073972;28;19981;-68
2023/07/30 03:48:27;;;;;;;;;;;;;;;;;;5074151;28;20422;-67
2023/07/30 03:50:53;;;;;;;;;;;;;;;;;;5071867;28;19955;-66
2023/07/30 03:53:19;;;;;;;;;;;;;;;;;;5072136;28;19951;-67
2023/07/30 03:55:45;;;;;;;;;;;;;;;;;;5061007;28;19971;-66
2023/07/30 03:58:11;;;;;;;;;;;;;;;;;;5058002;28;19957;-66
2023/07/30 04:00:38;;;;;;;;;;;;;;;;;;5058083;28;19964;-68
2023/07/30 04:03:04;;;;;;;;;;;;;;;;;;5053918;28;20409;-66
2023/07/30 04:05:30;;;;;;;;;;;;;;;;;;5053914;28;19988;-65
2023/07/30 04:07:56;;;;;;;;;;;;;;;;;;5053630;28;20381;-64
2023/07/30 04:10:22;;;;;;;;;;;;;;;;;;5053568;28;20314;-65
2023/07/30 04:12:50;;;;;;;19.70;14.50;;;;;;;;;;5053495;28;19995;-66
2023/07/30 04:15:17;;;;;;;25.63;16.77;;;;;;;;;;5053116;28;20388;-64
2023/07/30 04:17:43;;;;;;;20.27;15.60;;;;;;;;;;5051661;28;20028;-65
2023/07/30 04:20:10;;;;;;;27.95;17.33;;;;;;;;;;5052521;28;20482;-65
2023/07/30 04:22:37;;;;;;;30.15;17.27;;;;;;;;;;5052431;28;20068;-65
2023/07/30 04:25:04;;;;;;;27.50;17.38;;;;;;;;;;5052962;28;20025;-66
2023/07/30 04:27:31;;;;;;;27.88;18.23;;;;;;;;;;5052595;28;20025;-65
2023/07/30 04:29:57;;;;;;;26.05;18.45;;;;;;;;;;5052696;28;20503;-66
2023/07/30 04:32:24;;;;;;;27.58;19.75;;;;;;;;;;5053078;28;20036;-66
2023/07/30 04:34:51;;;;;;;44.42;28.17;;;;;;;;;;5053105;28;20025;-65
2023/07/30 04:37:17;;;;;;;34.75;20.60;;;;;;;;;;5053301;28;20473;-66
2023/07/30 04:39:44;;;;;;;22.88;16.77;;;;;;;;;;5053039;28;20053;-66
2023/07/30 04:42:12;;;;;;;28.45;17.63;;;;;;;;;;5053283;28;20381;-65
2023/07/30 04:44:39;;;;;;;28.13;17.52;;;;;;;;;;5052919;28;20029;-66
2023/07/30 04:47:07;;;;;;;25.33;16.10;;;;;;;;;;5052942;28;20043;-66
2023/07/30 04:49:33;;;;;;;23.73;17.15;;;;;;;;;;5052759;28;20051;-65
2023/07/30 04:52:00;;;;;;;26.42;17.02;;;;;;;;;;5059312;28;20078;-67
2023/07/30 04:54:27;;;;;;;31.83;18.10;;;;;;;;;;5063015;28;20087;-66
2023/07/30 04:56:53;;;;;;;29.65;18.80;;;;;;;;;;5061337;28;20492;-66
2023/07/30 04:59:20;;;;;;;25.05;17.83;;;;;;;;;;5062502;28;20035;-68
2023/07/30 05:01:46;;;;;;;24.20;16.98;;;;;;;;;;5061662;28;20526;-72
2023/07/30 05:04:13;;;;;;;25.05;16.52;;;;;;;;;;5062788;28;20071;-71
2023/07/30 05:06:40;;;;;;;25.25;17.10;;;;;;;;;;5055249;28;20111;-67
2023/07/30 05:09:06;;;;;;;28.90;18.42;;;;;;;;;;5054983;28;20025;-65
2023/07/30 05:11:33;;;;;;;25.67;16.35;;;;;;;;;;5066262;28;20512;-65
2023/07/30 05:13:59;;;;;;;27.00;18.08;;;;;;;;;;5066389;28;20060;-65
2023/07/30 05:16:26;;;;;;;26.27;16.73;;;;;;;;;;5066958;28;20552;-66
2023/07/30 05:18:52;;;;;;;24.27;16.50;;;;;;;;;;5065141;28;20025;-66
2023/07/30 05:21:19;;;;;;;36.85;25.63;;;;;;;;;;5065631;28;20024;-66
2023/07/30 05:23:46;;;;;;;35.95;22.08;;;;;;;;;;5066569;28;20017;-66
2023/07/30 05:26:12;;;;;;;23.00;16.63;;;;;;;;;;5064955;28;20010;-65
2023/07/30 05:28:39;;;;;;;20.35;15.70;;;;;;;;;;5065994;28;20062;-64
2023/07/30 05:31:05;;;;;;;26.92;16.17;;;;;;;;;;5066278;28;20021;-64
2023/07/30 05:33:32;;;;;;;25.73;15.25;;;;;;;;;;5064665;28;20506;-68
2023/07/30 05:35:59;;;;;;;23.77;15.38;;;;;;;;;;5065939;28;20489;-69
2023/07/30 05:38:25;;;;;;;22.38;16.27;;;;;;;;;;5066336;28;20155;-66
2023/07/30 05:40:52;;;;;;;24.25;16.20;;;;;;;;;;5064930;28;20099;-66
2023/07/30 05:43:18;;;;;;;24.70;14.85;;;;;;;;;;5065901;28;20024;-66
2023/07/30 05:45:45;;;;;;;25.23;16.65;;;;;;;;;;5065826;28;20484;-66
2023/07/30 05:48:11;;;;;;;22.63;15.23;;;;;;;;;;5064388;28;20016;-65
2023/07/30 05:50:38;;;;;;;25.60;16.95;;;;;;;;;;5065569;28;20058;-64
2023/07/30 05:53:05;;;;;;;22.95;15.90;;;;;;;;;;5065985;28;20021;-64
2023/07/30 05:55:31;;;;;;;24.55;16.73;;;;;;;;;;5063945;28;20017;-64
2023/07/30 05:57:58;;;;;;;19.75;15.98;;;;;;;;;;5065605;28;20020;-65
2023/07/30 06:00:25;;;;;;;21.98;15.05;;;;;;;;;;5065931;28;20524;-64
2023/07/30 06:02:51;;;;;;;23.67;15.52;;;;;;;;;;5063995;28;20024;-66
2023/07/30 06:05:18;;;;;;;22.70;14.75;;;;;;;;;;5065563;28;20535;-66
2023/07/30 06:07:45;;;;;;;21.23;14.77;;;;;;;;;;5065882;28;20021;-65
2023/07/30 06:10:11;;;;;;;26.33;14.07;;;;;;;;;;5064078;28;20017;-66
2023/07/30 06:12:38;;;;;;;22.88;14.20;;;;;;;;;;5065097;28;20024;-65
2023/07/30 06:15:06;;;;;;;21.98;14.75;;;;;;;;;;5065583;28;20074;-65
2023/07/30 06:17:33;;;;;;;21.98;13.88;;;;;;;;;;5063784;28;20078;-64
2023/07/30 06:20:00;;;;;;;21.70;12.40;;;;;;;;;;5064946;28;20048;-65
2023/07/30 06:22:26;;;;;;;18.73;13.60;;;;;;;;;;5065712;28;20068;-65
2023/07/30 06:24:53;;;;;;;19.30;12.20;;;;;;;;;;5063796;28;20139;-65
2023/07/30 06:27:20;;;;;;;19.95;12.00;;;;;;;;;;5065062;28;20025;-66
2023/07/30 06:29:47;;;;;;;18.77;11.70;;;;;;;;;;5065325;28;20033;-66
2023/07/30 06:32:13;;;;;;;19.65;12.13;;;;;;;;;;5063488;28;20556;-64
2023/07/30 06:34:40;;;;;;;19.60;11.05;;;;;;;;;;5064644;28;20025;-66
2023/07/30 06:37:06;;;;;;;20.48;11.88;;;;;;;;;;5065319;28;20484;-65
2023/07/30 06:39:33;;;;;;;20.95;11.38;;;;;;;;;;5063410;28;20440;-66
2023/07/30 06:42:00;;;;;;;16.83;9.98;;;;;;;;;;5064377;28;20070;-65
2023/07/30 06:44:26;;;;;;;18.90;10.73;;;;;;;;;;5065275;28;20497;-66
2023/07/30 06:46:53;;;;;;;17.73;10.30;;;;;;;;;;5063317;28;20025;-63
2023/07/30 06:49:20;;;;;;;19.60;10.75;;;;;;;;;;5064397;28;20028;-64
2023/07/30 06:51:46;;;;;;;17.50;9.95;;;;;;;;;;5065199;28;20381;-65
2023/07/30 06:54:13;;;;;;;20.63;10.25;;;;;;;;;;5063100;28;20025;-66
2023/07/30 06:56:40;;;;;;;15.90;9.05;;;;;;;;;;5064747;28;20350;-66
2023/07/30 06:59:06;;;;;;;19.85;9.90;;;;;;;;;;5065036;28;20021;-66
2023/07/30 07:01:33;;;;;;;13.65;9.07;;;;;;;;;;5065472;28;20044;-68
2023/07/30 07:03:59;;;;;;;18.85;8.48;;;;;;;;;;5064076;28;20029;-66
2023/07/30 07:06:26;;;;;;;14.85;9.75;;;;;;;;;;5063483;28;20029;-66
2023/07/30 07:08:53;;;;;;;19.00;9.35;;;;;;;;;;5065096;28;20028;-66
2023/07/30 07:11:20;;;;;;;11.70;8.95;;;;;;;;;;5063989;28;20709;-66
2023/07/30 07:13:46;;;;;;;14.07;9.35;;;;;;;;;;5063103;28;20109;-64
2023/07/30 07:16:13;;;;;;;13.70;8.70;;;;;;;;;;5064930;28;20507;-65
2023/07/30 07:18:40;;;;;;;13.80;8.27;;;;;;;;;;5064052;28;20066;-71
2023/07/30 07:21:07;;;;;;;14.07;8.63;;;;;;;;;;5063136;28;20402;-66
2023/07/30 07:23:34;;;;;;;16.00;9.23;;;;;;;;;;5062857;28;20512;-66
2023/07/30 07:26:01;;;;;;;15.88;8.60;;;;;;;;;;5063579;28;20020;-67
2023/07/30 07:28:27;;;;;;;15.20;8.73;;;;;;;;;;5064523;28;20119;-66
2023/07/30 07:30:55;;;;;;;14.48;8.40;;;;;;;;;;5062232;28;20109;-67
2023/07/30 07:33:22;;;;;;;16.48;8.32;;;;;;;;;;5063143;28;20044;-64
2023/07/30 07:35:49;;;;;;;15.70;9.00;;;;;;;;;;5064497;28;20481;-66
2023/07/30 07:38:16;;;;;;;17.35;8.73;;;;;;;;;;5062881;28;20021;-67
2023/07/30 07:40:43;;;;;;;18.55;8.52;;;;;;;;;;5063066;28;20028;-67
2023/07/30 07:43:10;;;;;;;14.82;8.65;;;;;;;;;;5064615;28;20108;-66
2023/07/30 07:45:36;;;;;;;20.02;9.73;;;;;;;;;;5062725;28;20017;-65
2023/07/30 07:48:03;;;;;;;18.58;8.15;;;;;;;;;;5062925;28;20143;-65
2023/07/30 07:50:29;;;;;;;18.75;9.45;;;;;;;;;;5064240;28;20020;-66
2023/07/30 07:52:56;;;;;;;18.58;10.60;;;;;;;;;;5062674;28;20092;-66
2023/07/30 07:55:23;;;;;;;23.45;10.65;;;;;;;;;;5062841;28;20051;-66
2023/07/30 07:57:49;;;;;;;12.55;7.22;;;;;;;;;;5064173;28;20055;-65
2023/07/30 08:00:19;;;;;;;14.60;8.45;;;;;;;;;;5062671;28;20049;-66
2023/07/30 08:02:45;;;;;;;;;;;;;;;;;;5059229;28;19966;-67
2023/07/30 08:05:11;;;;;;;;;;;;;;;;;;5058416;28;19950;-67
2023/07/30 08:07:38;;;;;;;;;;;;;;;;;;5053868;28;19988;-67
2023/07/30 08:10:04;;;;;;;;;;;;;;;;;;5054192;28;19940;-67
2023/07/30 08:12:30;;;;;;;;;;;;;;;;;;5053959;28;20010;-68
2023/07/30 08:14:56;;;;;;;;;;;;;;;;;;5059030;28;19986;-66
2023/07/30 08:17:23;;;;;;;;;;;;;;;;;;5062572;28;19955;-66
2023/07/30 08:19:49;;;;;;;;;;;;;;;;;;5062595;28;19983;-67
2023/07/30 08:22:15;;;;;;;;;;;;;;;;;;5063798;28;20477;-68
2023/07/30 08:24:41;;;;;;;;;;;;;;;;;;5068099;28;19937;-65
2023/07/30 08:27:07;;;;;;;;;;;;;;;;;;5073638;28;19938;-65
2023/07/30 08:29:34;;;;;;;;;;;;;;;;;;5073662;28;19977;-68
2023/07/30 08:32:00;;;;;;;;;;;;;;;;;;5063499;28;20030;-67
2023/07/30 08:34:27;;;;;;;;;;;;;;;;;;5063220;28;19946;-66
2023/07/30 08:36:53;;;;;;;;;;;;;;;;;;5067860;28;20471;-66
2023/07/30 08:39:19;;;;;;;;;;;;;;;;;;5061628;28;19969;-66
2023/07/30 08:41:45;;;;;;;;;;;;;;;;;;5061287;28;19953;-65
2023/07/30 08:44:11;;;;;;;;;;;;;;;;;;5065870;28;19953;-66
2023/07/30 08:46:37;;;;;;;;;;;;;;;;;;5068842;28;19936;-66
2023/07/30 08:49:04;;;;;;;;;;;;;;;;;;5067262;28;19958;-66
2023/07/30 08:51:30;;;;;;;;;;;;;;;;;;5064708;28;20443;-67
2023/07/30 08:53:57;;;;;;;;;;;;;;;;;;5064875;28;19948;-66
2023/07/30 08:56:23;;;;;;;;;;;;;;;;;;5067984;28;20394;-66
2023/07/30 08:58:49;;;;;;;;;;;;;;;;;;5064994;28;19946;-66
2023/07/30 09:01:15;;;;;;;;;;;;;;;;;;5065095;28;19941;-66
2023/07/30 09:03:42;;;;;;;;;;;;;;;;;;5069031;28;19953;-67
2023/07/30 09:06:08;;;;;;;;;;;;;;;;;;5070259;28;19950;-67
2023/07/30 09:08:34;;;;;;;;;;;;;;;;;;5063807;28;20047;-67
2023/07/30 09:11:00;;;;;;;;;;;;;;;;;;5056519;28;20461;-66
2023/07/30 09:13:26;;;;;;;;;;;;;;;;;;5061677;28;19943;-66
2023/07/30 09:15:53;;;;;;;;;;;;;;;;;;5065540;28;19941;-65
2023/07/30 09:18:19;;;;;;;;;;;;;;;;;;5064914;28;19942;-68
2023/07/30 09:20:45;;;;;;;33.30;20.02;;;;;;;;;;5065511;28;20872;-67
2023/07/30 09:23:12;;;;;;;;;;;;;;;;;;5065074;28;20124;-67
2023/07/30 09:25:38;;;;;;;;;;;;;;;;;;5064818;28;20450;-67
2023/07/30 09:28:04;;;;;;;;;;;;;;;;;;5066560;28;20416;-67
2023/07/30 09:30:30;;;;;;;;;;;;;;;;;;5065257;28;20002;-67
2023/07/30 09:32:56;;;;;;;;;;;;;;;;;;5065100;28;20368;-67
2023/07/30 09:35:24;;;;;;;;;;;;;;;;;;5066241;28;20001;-66
2023/07/30 09:37:50;;;;;;;;;;;;;;;;;;5064899;28;19938;-64
2023/07/30 09:40:18;;;;;;;;;;;;;;;;;;5062182;28;20441;-66
2023/07/30 09:42:44;;;;;;;;;;;;;;;;;;5055596;28;19956;-67
2023/07/30 09:45:10;;;;;;;;;;;;;;;;;;5055959;28;19987;-66
2023/07/30 09:47:36;;;;;;;;;;;;;;;;;;5057510;28;20190;-66
2023/07/30 09:50:03;;;;;;;29.70;18.52;;;;;;;;;;5061777;28;20417;-66
2023/07/30 09:52:33;;;;;;;44.28;22.10;;;;;;;;;;5070841;28;20497;-66
2023/07/30 09:55:00;;;;;;;33.97;19.73;;;;;;;;;;5061478;28;20028;-66
2023/07/30 09:57:26;;;;;;;34.70;19.27;;;;;;;;;;5066151;28;20009;-66
2023/07/30 09:59:53;;;;;;;29.52;16.45;;;;;;;;;;5066045;28;20403;-64
2023/07/30 10:02:20;;;;;;;26.67;17.95;;;;;;;;;;5064913;28;20040;-65
2023/07/30 10:04:50;;;;;;;24.90;15.88;;;;;;;;;;5062078;28;20023;-65
2023/07/30 10:07:18;;;;;;;29.33;17.63;;;;;;;;;;5062434;28;20482;-66
2023/07/30 10:09:47;;;;;;;70.00;43.67;;;;;;;;;;5062516;28;20067;-67
2023/07/30 10:12:17;;;;;;;374.55;263.65;;;;;;;;;;5066155;28;20036;-66
2023/07/30 10:14:44;;;;;;;392.38;268.27;;;;;;;;;;5063790;28;20032;-63
2023/07/30 10:17:12;;;;;;;481.42;368.27;;;;;;;;;;5063799;28;20036;-65
2023/07/30 10:19:38;;;;;;;494.65;342.10;;;;;;;;;;5064367;28;20091;-66
2023/07/30 10:22:14;;;;;;;309.98;212.02;;;;;;;;;;5063542;28;20068;-66
2023/07/30 10:24:41;;;;;;;755.55;546.00;;;;;;;;;;5062426;28;20453;-65
2023/07/30 10:27:09;;;;;;;715.47;498.10;;;;;;;;;;5063936;28;20033;-65
2023/07/30 10:29:38;;;;;;;208.93;133.75;;;;;;;;;;5065110;28;20033;-63
2023/07/30 10:32:05;;;;;;;375.83;220.60;;;;;;;;;;5064073;28;20019;-64
2023/07/30 10:35:00;;;;;;;543.60;325.13;;;;;;;;;;5065484;28;20486;-66
2023/07/30 10:37:27;;;;;;;304.85;153.65;;;;;;;;;;5063820;28;20072;-65
2023/07/30 10:39:54;;;;;;;427.88;202.82;;;;;;;;;;5063456;28;20388;-65
2023/07/30 10:42:21;;;;;;;631.67;467.55;;;;;;;;;;5063317;28;20425;-65
2023/07/30 10:44:47;;;;;;;253.82;180.35;;;;;;;;;;5064884;28;20024;-67
2023/07/30 10:47:14;;;;;;;391.67;261.25;;;;;;;;;;5064048;28;20024;-64
2023/07/30 10:49:41;;;;;;;562.65;348.08;;;;;;;;;;5065067;28;20082;-66
2023/07/30 10:52:08;;;;;;;353.98;183.63;;;;;;;;;;5064574;28;20021;-66
2023/07/30 10:54:35;;;;;;;518.25;247.02;;;;;;;;;;5062083;28;20082;-66
2023/07/30 10:57:03;;;;;;;290.08;124.70;;;;;;;;;;5064176;28;20017;-64
2023/07/30 10:59:36;;;;;;;354.85;147.77;;;;;;;;;;5062282;28;20017;-65
2023/07/30 11:02:03;;;;;;;338.60;147.05;;;;;;;;;;5060724;28;20040;-66
2023/07/30 11:04:30;;;;;;;305.42;115.85;;;;;;;;;;5060761;28;20086;-67
2023/07/30 11:06:57;;;;;;;498.60;217.80;;;;;;;;;;5062217;28;20017;-67
2023/07/30 11:09:25;;;;;;;425.33;195.70;;;;;;;;;;5057608;28;20544;-65
2023/07/30 11:11:52;;;;;;;193.48;89.60;;;;;;;;;;5058053;28;20029;-64
2023/07/30 11:14:22;;;;;;;182.43;107.38;;;;;;;;;;5055582;28;20031;-64
2023/07/30 11:16:58;;;;;;;100.70;57.58;;;;;;;;;;5056370;28;20423;-67
2023/07/30 11:19:25;;;;;;;179.40;107.93;;;;;;;;;;5066972;28;20477;-67
2023/07/30 11:21:53;;;;;;;118.43;74.63;;;;;;;;;;5072476;28;20088;-67
2023/07/30 11:24:20;;;;;;;109.68;59.17;;;;;;;;;;5066212;28;20028;-64
2023/07/30 11:26:58;;;;;;;104.47;57.97;;;;;;;;;;5062322;28;20378;-65
2023/07/30 11:29:24;;;;;;;104.57;54.47;;;;;;;;;;5061953;28;20109;-65
2023/07/30 11:31:51;;;;;;;79.35;42.50;;;;;;;;;;5060235;28;20512;-64
2023/07/30 11:34:18;;;;;;;88.70;48.55;;;;;;;;;;5069152;28;20020;-66
2023/07/30 11:36:45;;;;;;;63.05;38.70;;;;;;;;;;5061168;28;20500;-66
2023/07/30 11:39:12;;;;;;;117.95;67.88;;;;;;;;;;5057795;28;20303;-66
2023/07/30 11:41:39;;;;;;;81.05;43.50;;;;;;;;;;5057844;28;20017;-66
2023/07/30 11:44:05;;;;;;;69.57;43.83;;;;;;;;;;5058165;28;20028;-67
2023/07/30 11:46:33;;;;;;;112.95;61.75;;;;;;;;;;5057213;28;20052;-66
2023/07/30 11:49:18;;;;;;;82.05;49.58;;;;;;;;;;5057234;28;20021;-66
2023/07/30 11:51:47;;;;;;;115.32;77.57;;;;;;;;;;5067649;28;20020;-66
2023/07/30 11:54:21;;;;;;;108.90;61.42;;;;;;;;;;5066441;28;20127;-65
2023/07/30 11:56:47;;;;;;;56.92;35.42;;;;;;;;;;5056660;28;20024;-66
2023/07/30 11:59:14;;;;;;;53.50;31.67;;;;;;;;;;5063857;28;20019;-65
2023/07/30 12:01:43;;;;;;;50.95;29.38;;;;;;;;;;5056359;28;20028;-64
2023/07/30 12:04:09;;;;;;;45.78;28.55;;;;;;;;;;5069928;28;20044;-66
2023/07/30 12:06:39;;;;;;;59.20;26.63;;;;;;;;;;5059421;28;20021;-67
2023/07/30 12:09:22;;;;;;;40.45;22.92;;;;;;;;;;5065720;28;20027;-69
2023/07/30 12:11:52;;;;;;;49.25;24.75;;;;;;;;;;5065986;28;20422;-67
2023/07/30 12:14:19;;;;;;;42.05;26.50;;;;;;;;;;5064045;28;20111;-70
2023/07/30 12:16:46;;;;;;;57.10;42.75;;;;;;;;;;5057300;28;20389;-67
2023/07/30 12:19:13;;;;;;;109.20;73.80;;;;;;;;;;5058581;28;20439;-69
2023/07/30 12:21:39;;;;;;;73.20;43.10;;;;;;;;;;5061335;28;20127;-70
2023/07/30 12:24:06;;;;;;;50.25;33.20;;;;;;;;;;5054031;28;20032;-68
2023/07/30 12:26:33;;;;;;;39.78;22.77;;;;;;;;;;5065596;28;20092;-69
2023/07/30 12:28:59;;;;;;;39.17;21.58;;;;;;;;;;5071745;28;20023;-67
2023/07/30 12:31:26;;;;;;;37.40;20.98;;;;;;;;;;5062892;28;20024;-67
2023/07/30 12:33:52;;;;;;;35.10;20.75;;;;;;;;;;5066775;28;20066;-68
2023/07/30 12:36:19;;;;;;;44.08;24.27;;;;;;;;;;5065836;28;20021;-68
2023/07/30 12:38:46;;;;;;;40.47;27.77;;;;;;;;;;5069292;28;20542;-68
2023/07/30 12:41:12;;;;;;;74.88;50.80;;;;;;;;;;5075590;28;20032;-68
2023/07/30 12:43:39;;;;;;;80.18;50.35;;;;;;;;;;5061154;28;20436;-68
2023/07/30 12:46:06;;;;;;;54.58;36.10;;;;;;;;;;5066316;28;20093;-66
2023/07/30 12:48:32;;;;;;;60.92;37.97;;;;;;;;;;5065506;28;20036;-67
2023/07/30 12:50:59;;;;;;;67.80;38.13;;;;;;;;;;5068234;28;20028;-66
2023/07/30 12:53:26;;;;;;;62.15;36.13;;;;;;;;;;5065195;28;20035;-66
2023/07/30 12:55:52;;;;;;;89.35;38.65;;;;;;;;;;5058665;28;20503;-66
2023/07/30 12:58:19;;;;;;;65.00;31.17;;;;;;;;;;5062519;28;20102;-67
2023/07/30 13:00:46;;;;;;;44.38;29.30;;;;;;;;;;5061695;28;20048;-64
2023/07/30 13:03:12;;;;;;;68.38;34.22;;;;;;;;;;5061389;28;20025;-64
2023/07/30 13:05:39;;;;;;;64.53;32.63;;;;;;;;;;5053737;28;20023;-65
2023/07/30 13:08:06;;;;;;;83.53;32.97;;;;;;;;;;5058324;28;20035;-66
2023/07/30 13:10:32;;;;;;;54.13;28.70;;;;;;;;;;5053667;28;20531;-66
2023/07/30 13:12:59;;;;;;;45.38;29.35;;;;;;;;;;5055949;28;20033;-67
2023/07/30 13:15:26;;;;;;;45.58;29.90;;;;;;;;;;5063127;28;20025;-66
2023/07/30 13:17:52;;;;;;;47.67;28.45;;;;;;;;;;5057673;28;20075;-66
2023/07/30 13:20:19;;;;;;;47.10;30.10;;;;;;;;;;5058110;28;20052;-66
2023/07/30 13:22:45;;;;;;;42.03;28.15;;;;;;;;;;5058549;28;20216;-64
2023/07/30 13:25:12;;;;;;;40.75;29.02;;;;;;;;;;5058137;28;20021;-64
2023/07/30 13:27:39;;;;;;;49.55;28.25;;;;;;;;;;5058056;28;20107;-64
2023/07/30 13:30:06;;;;;;;43.72;29.65;;;;;;;;;;5061401;28;20492;-65
2023/07/30 13:32:32;;;;;;;65.95;44.38;;;;;;;;;;5066565;28;20201;-66
2023/07/30 13:34:59;;;;;;;82.32;55.85;;;;;;;;;;5065758;28;20045;-66
2023/07/30 13:37:25;;;;;;;58.95;41.13;;;;;;;;;;5064382;28;20036;-68
2023/07/30 13:39:52;;;;;;;54.17;37.95;;;;;;;;;;5056352;28;20478;-66
2023/07/30 13:42:19;;;;;;;53.42;40.75;;;;;;;;;;5056192;28;20053;-66
2023/07/30 13:44:45;;;;;;;52.28;40.85;;;;;;;;;;5059224;28;20048;-65
2023/07/30 13:47:12;;;;;;;48.72;29.85;;;;;;;;;;5056051;28;20053;-65
2023/07/30 13:49:39;;;;;;;160.45;115.05;;;;;;;;;;5056125;28;20044;-65
2023/07/30 13:52:05;;;;;;;379.90;286.10;;;;;;;;;;5055894;28;20025;-65
2023/07/30 13:54:32;;;;;;;1373.97;999.90;;;;;;;;;;5055946;28;20363;-64
2023/07/30 13:56:59;;;;;;;59.78;40.60;;;;;;;;;;5055857;28;20147;-65
2023/07/30 13:59:25;;;;;;;62.90;46.25;;;;;;;;;;5066765;28;20028;-64
2023/07/30 14:01:52;;;;;;;48.05;32.97;;;;;;;;;;5075647;28;20024;-65
2023/07/30 14:04:18;;;;;;;47.50;32.17;;;;;;;;;;5075745;28;20024;-64
2023/07/30 14:06:45;;;;;;;43.67;31.55;;;;;;;;;;5075643;28;20027;-66
2023/07/30 14:09:12;;;;;;;46.70;31.10;;;;;;;;;;5075600;28;20642;-65
2023/07/30 14:11:40;;;;;;;45.45;29.98;;;;;;;;;;5075671;28;20031;-65
2023/07/30 14:14:07;;;;;;;50.53;30.73;;;;;;;;;;5075818;28;20033;-64
2023/07/30 14:16:34;;;;;;;48.28;31.98;;;;;;;;;;5075598;28;20396;-63
2023/07/30 14:19:00;;;;;;;45.70;31.30;;;;;;;;;;5073899;28;20029;-65
2023/07/30 14:21:27;;;;;;;54.45;32.85;;;;;;;;;;5063415;28;20028;-66
2023/07/30 14:23:54;;;;;;;60.28;33.65;;;;;;;;;;5063881;28;20651;-66
2023/07/30 14:26:21;;;;;;;47.88;31.70;;;;;;;;;;5055476;28;20551;-65
2023/07/30 14:28:48;;;;;;;51.78;31.45;;;;;;;;;;5059180;28;20067;-65
2023/07/30 14:31:14;;;;;;;47.47;31.60;;;;;;;;;;5057798;28;20056;-66
2023/07/30 14:33:41;;;;;;;45.63;30.95;;;;;;;;;;5063930;28;20017;-66
2023/07/30 14:36:10;;;;;;;48.40;30.88;;;;;;;;;;5059800;28;20485;-66
2023/07/30 14:38:38;;;;;;;48.17;32.70;;;;;;;;;;5060018;28;20111;-65
2023/07/30 14:41:05;;;;;;;54.35;34.92;;;;;;;;;;5060319;28;20028;-64
2023/07/30 14:43:32;;;;;;;58.10;36.42;;;;;;;;;;5059622;28;20025;-65
2023/07/30 14:45:58;;;;;;;53.40;35.03;;;;;;;;;;5062744;28;20020;-65
2023/07/30 14:48:26;;;;;;;57.47;34.72;;;;;;;;;;5064787;28;20461;-67
2023/07/30 14:50:53;;;;;;;51.75;34.10;;;;;;;;;;5063372;28;20025;-65
2023/07/30 14:53:20;;;;;;;42.08;28.75;;;;;;;;;;5062527;28;20050;-66
2023/07/30 14:55:46;;;;;;;42.75;27.35;;;;;;;;;;5064691;28;20020;-66
2023/07/30 14:58:13;;;;;;;40.47;25.52;;;;;;;;;;5063538;28;20182;-65
2023/07/30 15:00:40;;;;;;;39.05;26.83;;;;;;;;;;5062600;28;20035;-65
2023/07/30 15:03:07;;;;;;;38.53;24.90;;;;;;;;;;5064650;28;20025;-66
2023/07/30 15:05:33;;;;;;;41.38;26.52;;;;;;;;;;5062711;28;20104;-67
2023/07/30 15:08:00;;;;;;;36.42;24.85;;;;;;;;;;5063926;28;20432;-66
2023/07/30 15:10:27;;;;;;;33.58;24.45;;;;;;;;;;5064401;28;20036;-66
2023/07/30 15:12:54;;;;;;;36.40;24.27;;;;;;;;;;5063160;28;20059;-65
2023/07/30 15:15:20;;;;;;;36.50;23.83;;;;;;;;;;5062538;28;20393;-67
2023/07/30 15:17:47;;;;;;;36.10;24.30;;;;;;;;;;5063974;28;20020;-66
2023/07/30 15:20:14;;;;;;;39.80;24.33;;;;;;;;;;5062959;28;20448;-66
2023/07/30 15:22:40;;;;;;;38.55;24.38;;;;;;;;;;5062251;28;20033;-66
2023/07/30 15:25:07;;;;;;;38.05;26.33;;;;;;;;;;5064395;28;20016;-65